Flight Track Log - Related Links

Times and Time Zones

All times are in EDT time to prevent confusion due to time zone crossing. See the ASQ5745 flight status page for this flight to view local times or setup timezone preferences in your user account.

Time Position Orientation Groundspeed Altitude Reporting Facility
EDT Latitude Longitude Course Direction KTS MPH feet Rate Location/Type
Wed 09:44:37 AM 38.9667 -77.5333 North 192 221 2,600  Level Potomac TRACON
Wed 09:45:37 AM 39.0167 -77.5500 345° North 253 291 5,000 2,508 Climbing Potomac TRACON
Wed 09:47:00 AM 39.2883 -77.4500 North  Level FlightAware Approximate
Wed 09:47:34 AM 39.1583 -77.5297 North 272 313 10,000  Level Washington Center
Wed 09:48:00 AM 39.3770 -77.4500 North  Level FlightAware Approximate
Wed 09:48:35 AM 39.2439 -77.5186 North 279 321 11,000  Level Washington Center
Wed 09:49:00 AM 39.4658 -77.4500 North  Level FlightAware Approximate
Wed 09:49:33 AM 39.3381 -77.5022 North 314 361 12,600  Level Washington Center
Wed 09:50:34 AM 39.4383 -77.4861 North 338 389 14,500 1,753 Climbing Washington Center
Wed 09:52:31 AM 39.6342 -77.4539 North 357 411 17,800 1,492 Climbing New York Center
Wed 09:53:31 AM 39.7242 -77.4517 North 352 405 18,900 1,169 Climbing New York Center
Wed 09:54:29 AM 39.8325 -77.4539 359° North 352 405 20,100 1,068 Climbing New York Center
Wed 09:55:29 AM 39.9328 -77.4500 North 352 405 21,000 893 Climbing New York Center
Wed 09:56:30 AM 40.0350 -77.4489 360° North 352 405 21,900 893 Climbing New York Center
Wed 09:57:30 AM 40.1394 -77.4453 North 364 419 22,800 738 Climbing New York Center
Wed 09:58:32 AM 40.2442 -77.4011 18° North 381 438 23,400 545 Climbing New York Center
Wed 09:59:31 AM 40.3478 -77.3372 25° Northeast 388 447 23,900 454 Climbing New York Center
Wed 10:00:31 AM 40.4408 -77.2753 27° Northeast 400 460 24,300 443 Climbing New York Center
Wed 10:01:33 AM 40.5489 -77.2064 26° Northeast 421 484 24,800 508 Climbing New York Center
Wed 10:02:29 AM 40.6567 -77.1369 26° Northeast 426 490 25,300 564 Climbing New York Center
Wed 10:03:30 AM 40.7647 -77.0675 26° Northeast 426 490 25,900 545 Climbing New York Center
Wed 10:04:30 AM 40.8747 -76.9953 26° Northeast 426 490 26,400 496 Climbing New York Center
Wed 10:05:31 AM 40.9850 -76.9228 26° Northeast 426 490 26,900 295 Climbing New York Center
Wed 10:06:32 AM 41.0928 -76.8528 26° Northeast 426 490 27,000 50 Climbing New York Center
Wed 10:07:30 AM 41.2006 -76.7825 26° Northeast 426 490 27,000  Level New York Center
Wed 10:08:30 AM 41.3061 -76.7119 27° Northeast 426 490 27,000  Level New York Center
Wed 10:09:31 AM 41.4158 -76.6414 26° Northeast 426 490 27,000  Level New York Center
Wed 10:10:29 AM 41.5322 -76.5628 27° Northeast 426 490 27,000  Level New York Center
Wed 10:11:30 AM 41.6400 -76.4889 27° Northeast 426 490 27,000 -528 Level New York Center
Wed 10:13:08 AM 41.7992 -76.3531 32° Northeast 451 519 25,600 -949 Descending Boston Center
Wed 10:14:08 AM 41.8606 -76.2008 62° Northeast 439 505 24,500 -800 Descending Boston Center
Wed 10:15:08 AM 41.9197 -76.0481 62° Northeast 451 519 24,000 -250 Descending Boston Center
Wed 10:16:08 AM 41.9811 -75.8867 63° Northeast 451 519 24,000  Level Boston Center
Wed 10:17:08 AM 42.0397 -75.7361 62° Northeast 451 519 24,000  Level Boston Center
Wed 10:18:20 AM 42.1075 -75.5578 63° Northeast 445 512 24,000  Level Boston Center
Wed 10:19:20 AM 42.1636 -75.4064 63° Northeast 445 512 24,000 -750 Level Boston Center
Wed 10:20:20 AM 42.2194 -75.2578 63° Northeast 440 506 22,500 -1,850 Descending Boston Center
Wed 10:21:20 AM 42.2664 -75.1336 63° Northeast 425 489 20,300 -2,050 Descending Boston Center
Wed 10:22:20 AM 42.3153 -75.0008 63° Northeast 402 463 18,400 -1,850 Descending Boston Center
Wed 10:23:20 AM 42.3639 -74.8708 63° Northeast 388 447 16,600 -1,868 Descending Boston Center
Wed 10:24:06 AM 42.4039 -74.7514 66° East 380 437 15,100 -1,794 Descending Boston Center
Wed 10:25:07 AM 42.4503 -74.6292 63° Northeast 373 429 13,400 -1,587 Descending Boston Center
Wed 10:26:07 AM 42.4964 -74.5014 64° Northeast 365 420 11,900 -1,339 Descending Boston Center
Wed 10:27:08 AM 42.5422 -74.3817 63° Northeast 362 417 10,700 -1,240 Descending Boston Center
Wed 10:28:08 AM 42.5792 -74.2814 63° Northeast 294 338 9,400 -1,587 Descending Boston Center
Wed 10:29:09 AM 42.6408 -74.2183 37° Northeast 266 306 7,500 -1,770 Descending Boston Center
Wed 10:30:10 AM 42.7061 -74.1636 32° Northeast 276 318 5,800 -1,557 Descending Boston Center
Wed 10:31:20 AM 42.7842 -74.0978 32° Northeast 273 314 4,100 -831 Descending Boston Center
Wed 10:32:20 AM 42.8475 -74.0486 30° Northeast 273 314 4,000 -300 Descending Boston Center
Wed 10:33:20 AM 42.8906 -73.9450 60° Northeast 274 315 3,500 -536 Descending Boston Center
Wed 10:34:12 AM 42.9167 -73.8661 66° East 248 285 3,000 -531 Descending Boston Center
Wed 10:35:13 AM 42.9069 -73.8064 103° East 182 209 2,500 -492 Descending Boston Center

Login

Don't have an account? Register now (free) for customized features, flight alerts, and more!